KTIW/TIW METAR and TAF weather

Enter ICAO airport designator
Station Type Date Time Source
KTIW METAR 2019/08/22 04:53 UTC NOAA

KTIW 220453Z AUTO 34004KT 4SM -RA BR OVC004 14/14 A3000 RMK AO2 CIG 004V008 SLP159 P0010 T01440144 TSNO


Station Type Date Time Source
KTIW Decoded METAR 2019/08/22 04:53 UTC NOAA

Station name not available
Aug 22, 2019 - 12:53 AM EDT / 2019.08.22 0453 UTC
Wind: from the NNW (340 degrees) at 5 MPH (4 KT):0
Visibility: 4 mile(s):0
Sky conditions: overcast
Weather: light rain; mist
Precipitation last hour: 0.10 inches
Temperature: 57.9 F (14.4 C)
Dew Point: 57.9 F (14.4 C)
Relative Humidity: 100%
Pressure (altimeter): 30 in. Hg (1015 hPa)
ob: KTIW 220453Z AUTO 34004KT 4SM -RA BR OVC004 14/14 A3000 RMK AO2 CIG 004V008 SLP159 P0010 T01440144 TSNO
cycle: 5

Station Type Date Time Source
KTIW TAF UTC NOAA

Error!

Example: see airport list